Saturday, August 18, 2018, 3:14 AM EDT
Back to Local

KACK, Nantucket Memorial Airport

Location: Nantucket, MA, United States Lat: 41.25
Local Time: 3:14 AM EDT ( 7:14 GMT) Lon: -70.067
Time Zone: US/Eastern Elev: 49 ft

Show me the last for .
Show Decoded

2018-08-18 02:53 METAR KACK 180653Z AUTO 19010KT 1/2SM R24/2800V3000FT FG VV002 22/22 A2992 RMK
                 AO2 SLP132 T02170217 =
2018-08-18 01:53 METAR KACK 180553Z AUTO 18010KT 1/2SM R24/2800V3000FT FG VV002 22/22 A2994 RMK
                 AO2 SLP138 T02170217 10222 20217 58015 =
2018-08-18 01:23 METAR KACK 180523Z AUTO 19010KT 1/2SM R24/2000V2400FT FG VV002 22/22 A2995 RMK
                 AO2 T02170217 =
2018-08-18 01:18 METAR KACK 180518Z AUTO 19009KT 1/4SM R24/2000V2200FT FG VV002 22/22 A2995 RMK
                 AO2 T02170217 =
2018-08-18 00:53 METAR KACK 180453Z AUTO 19008KT 1/2SM R24/2400V2800FT FG VV002 22/22 A2996 RMK
                 AO2 SLP146 T02170217 402830189 =
2018-08-18 00:40 METAR KACK 180440Z AUTO 18008KT 3/4SM R24/3000V4000FT BR VV002 22/22 A2997 RMK
                 AO2 T02170217 =
2018-08-18 00:17 METAR KACK 180417Z AUTO 19007KT 1SM R24/3500V4500FT BR VV002 22/22 A2998 RMK AO2
                 T02170217 =
2018-08-18 00:10 METAR KACK 180410Z AUTO 19007KT 1 1/4SM R24/4000VP6000FT BR OVC001 22/22 A2998
                 RMK AO2 T02170217 =
2018-08-17 23:53 METAR KACK 180353Z AUTO 19008KT 2 1/2SM BR OVC001 22/22 A2998 RMK AO2 SLP151
                 T02170217 =
2018-08-17 23:37 METAR KACK 180337Z AUTO 19007KT 3SM BR BKN001 OVC110 22/22 A2998 RMK AO2
                 T02170217 =
2018-08-17 23:04 METAR KACK 180304Z AUTO 20008KT 3SM BR OVC002 22/22 A2998 RMK AO2 T02170217 =
2018-08-17 22:53 METAR KACK 180253Z AUTO 19008KT 2 1/2SM BR OVC002 22/22 A2998 RMK AO2 SLP153
                 T02170217 58005 =
2018-08-17 22:07 METAR KACK 180207Z AUTO 20008KT 3SM BR BKN003 22/22 A3000 RMK AO2 T02170217 =
2018-08-17 21:53 METAR KACK 180153Z AUTO 19007KT 2 1/2SM BR OVC003 22/22 A3001 RMK AO2 SLP161
                 T02170217 =
2018-08-17 21:24 METAR KACK 180124Z 20009KT 3SM BR BKN004 22/22 A3001 RMK AO2 T02220222 =
2018-08-17 21:00 METAR KACK 180100Z 20008KT 3SM BR FEW002 FEW006 22/22 A3001 RMK AO2 T02220222 =
2018-08-17 20:53 METAR KACK 180053Z 20009KT 3SM BR BKN006 22/22 A3001 RMK AO2 SLP161 T02220222 =
2018-08-17 20:22 METAR KACK 180022Z 20007KT 4SM BR BKN006 22/22 A2999 RMK AO2 T02220222 =
2018-08-17 20:11 METAR KACK 180011Z 19008KT 6SM BR CLR 22/22 A2999 RMK AO2 T02220222 =
2018-08-17 20:01 METAR KACK 180001Z 19007KT 4SM BR BKN002 22/22 A2999 RMK AO2 T02220222 =
2018-08-17 19:53 METAR KACK 172353Z 19007KT 4SM BR FEW002 22/22 A3000 RMK AO2 SLP158 T02220222
                 10278 20222 56005 =
2018-08-17 19:48 METAR KACK 172348Z 19007KT 3SM BR SCT002 22/22 A3000 RMK AO2 =
2018-08-17 19:39 METAR KACK 172339Z 20007KT 3SM BR BKN002 23/23 A3000 RMK AO2 T02280228 =
2018-08-17 19:32 METAR KACK 172332Z 19008KT 2SM R24/2200FT BR OVC002 23/23 A3000 RMK AO2
                 T02280228 =
2018-08-17 19:15 METAR KACK 172315Z 18006KT 1/2SM R24/2200FT FG VV002 22/22 A3000 RMK AO2
                 T02220222 =
2018-08-17 19:00 METAR KACK 172300Z 18004KT 1/4SM R24/2200FT FG VV002 23/23 A3000 RMK AO2
                 T02280228 =
2018-08-17 18:53 METAR KACK 172253Z 19006KT 1/2SM R24/2200FT FG VV002 23/23 A3001 RMK AO2 SLP161
                 T02280228 =
2018-08-17 17:53 METAR KACK 172153Z 20006KT 1/2SM R24/2200FT FG VV002 23/23 A3001 RMK AO2 SLP163
                 T02280228 =
2018-08-17 17:50 METAR KACK 172150Z 20006KT 1/2SM R24/2200FT FG VV002 23/23 A3001 RMK AO2 =
2018-08-17 17:03 METAR KACK 172103Z 20007KT 3SM BR BKN003 25/24 A3002 RMK AO2 FG BANK SE-W
                 T02500239 =
2018-08-17 16:53 METAR KACK 172053Z 19007KT 3SM BR BKN007 25/24 A3002 RMK AO2 SLP164 FG BANK SE-W
                 T02500239 57015 =
2018-08-17 16:35 METAR KACK 172035Z 21008KT 3SM BR BKN007 24/24 A3002 RMK AO2 FG BANK SE-W
                 T02440239 =
2018-08-17 16:23 METAR KACK 172023Z 21007KT 5SM BR SCT007 24/24 A3002 RMK AO2 FG BANK SE-W
                 T02440239 =
2018-08-17 15:53 METAR KACK 171953Z 20007KT 7SM CLR 26/24 A3003 RMK AO2 SLP169 T02560244 =
2018-08-17 14:53 METAR KACK 171853Z 20007KT 7SM CLR 27/24 A3005 RMK AO2 SLP174 T02670244 =
2018-08-17 13:53 METAR KACK 171753Z 22007KT 7SM CLR 28/24 A3006 RMK AO2 SLP179 T02780244 10283
                 20222 56010 =
2018-08-17 12:53 METAR KACK 171653Z 24008KT 8SM CLR 28/24 A3007 RMK AO2 SLP181 T02830244 =
2018-08-17 11:53 METAR KACK 171553Z 20006KT 8SM CLR 26/23 A3008 RMK AO2 SLP185 FG BANK S-W
                 T02610233 =
2018-08-17 10:53 METAR KACK 171453Z 19005KT 6SM BR FEW003 24/22 A3009 RMK AO2 SLP189 FG BANK S-W
                 T02440222 55001 =
2018-08-17 09:53 METAR KACK 171353Z 18005KT 10SM CLR 24/22 A3009 RMK AO2 SLP189 FG BANK S
                 T02390222 =
2018-08-17 08:53 METAR KACK 171253Z 15005KT 10SM CLR 24/22 A3009 RMK AO2 SLP188 T02440217 =
2018-08-17 07:53 METAR KACK 171153Z 13006KT 10SM CLR 22/21 A3009 RMK AO2 SLP190 T02220206 10228
                 20189 51006 =
2018-08-17 06:53 METAR KACK 171053Z 08005KT 6SM BR CLR 22/21 A3009 RMK AO2 SLP188 T02170206 =
2018-08-17 05:53 METAR KACK 170953Z 00000KT 6SM BR FEW002 19/19 A3008 RMK AO2 SLP187 MIFG ALL
                 QUADS T01940194 =
2018-08-17 05:40 METAR KACK 170940Z AUTO 10003KT 3SM BR FEW002 19/19 A3008 RMK AO2 T01940194 =
2018-08-17 05:36 METAR KACK 170936Z AUTO 00000KT 1SM R24/2400VP6000FT BR CLR 21/21 A3008 RMK AO2
                 T02060206 =
2018-08-17 04:53 METAR KACK 170853Z AUTO 00000KT 1/4SM R24/1600VP6000FT FG VV002 20/20 A3007 RMK
                 AO2 SLP184 T02000200 53002 =
2018-08-17 04:43 METAR KACK 170843Z AUTO 00000KT 3/4SM R24/P6000FT BR VV003 21/21 A3007 RMK AO2
                 T02060206 =
2018-08-17 04:41 METAR KACK 170841Z AUTO 00000KT 1 3/4SM BR CLR 21/21 A3007 RMK AO2 T02060206 =
2018-08-17 03:53 METAR KACK 170753Z AUTO 01003KT 4SM BR CLR 21/21 A3007 RMK AO2 SLP182 T02110211
                 =

Support USWX by starting your Amazon purchase here.